USA Pigeon Derby - Test Inventory

Station: - T Race

Distance: 1 Miles

Release: 14-Sep-2023 07:30

Weather Release:    Arrival:

Wind at Release:     Wind at Arrival:

Temp at Release: °    Temp at Arrival: °

Lofts: 261

Birds: 1419

Clocked: 1415

Good Luck to Everyone!
Drops Pos Breeder Pigeon Name Color Sex Team Ent Arrival Speed To Win Elg Pd
1 Mejía Family Loft - FL 27522-AU23-ARPU BB C 0 1 08:47:15.97 14.1538 00:00:00 Yes
1 GonzalezFamilyLoft - FL 0137-AU23-GONZ “MoneyMaker” BB H 0 1 08:47:15.98 14.1538 00:00:00 Yes
3 Amara one loft - TN 2335-AU23-PARA El Alfa RED C 0 1 08:56:50.82 12.5924 00:09:35 Yes
4 Alvaro Rey Loft - FL 0260-AU23-PRPC BC H 0 1 08:56:51.60 12.5905 00:09:36 Yes
5 KODIAK ALASKA - AK 0010-AU23-APO DC C 0 1 08:56:51.67 12.5904 00:09:36 Yes
6 ZM Loft - NY 0394-IF23-STY BB C 0 1 08:56:51.75 12.5902 00:09:36 Yes
7 Lugo 55 & Alvarez Loft - KY 0161-AU23-AGRP Pin pin BB C 0 1 08:56:52.53 12.5883 00:09:37 Yes
8 Ruben Loft - FL 6367-AU23-AA BB H 0 1 08:56:52.61 12.5881 00:09:37 Yes
9 Rodriguez Loft - TX 23633-AU23-WIN ANLEO BB H 0 1 08:56:52.69 12.5879 00:09:37 Yes
10 Santa Clara Loft - FL 12950-AU23-ARPU BC C 0 1 08:56:52.95 12.5873 00:09:37 Yes
11 Jesus Fonseca Loft - FL 7560-AU23-AA BB H 0 1 08:56:53.18 12.5867 00:09:37 Yes
12 GALAXY - FL 1827-AU23-AA BB C 0 1 08:56:53.27 12.5865 00:09:37 Yes
13 JuliettaFamilyLoft - FL 23054-IF23-FCC BB C 0 1 08:56:53.44 12.5861 00:09:37 Yes
14 VIKINGO LOFT - FL 0007-AU23-VKGO BC H 0 1 08:56:53.81 12.5852 00:09:38 Yes
15 El Reparto Loft" - FL 47153-AU23-ARPU BB H 0 1 08:56:54.04 12.5846 00:09:38 Yes
15 Real Madrid Y Familia - FL 5244-AU23-HRPC BB H 0 1 08:56:54.06 12.5846 00:09:38 Yes
17 Jiang Tou Loft - TN 9955-AU23-TOU 🟥🟥🟥🟥🟥🟥 BC C 0 1 08:56:54.16 12.5843 00:09:38 Yes
17 Spring Hill - Miami-Syndicate - FL 0134-AU23-GALL BB C 0 1 08:56:54.17 12.5843 00:09:38 Yes
17 A-Lo-Loft - NY 8868-AU23-ALOL ☯️☯️☯️☯️ BB C 0 1 08:56:54.18 12.5843 00:09:38 Yes
20 The Rios Family Loft - NC 0039-AU23-ANGE OLICKITTEL06XGUCCIGIR421 BC C 0 1 08:56:54.27 12.5841 00:09:38 Yes
21 Mollinedo Rivera Loft - FL 0002-AU23-AEM New Magic BB C 0 1 08:56:54.64 12.5832 00:09:39 Yes
22 Lazaro Loft - FL 3210-AU23-AA BC C 0 1 08:56:54.89 12.5826 00:09:39 Yes
22 Hale Nūnū - VA 18646-AU23-JEDD BB C 0 1 08:56:54.90 12.5826 00:09:39 Yes
24 Vita Y Yaisel - FL 3347-AU23-THP DC C 0 1 08:56:54.92 12.5825 00:09:39 Yes
25 Rivera Holguin Loft - FL 0252-AU23-RIVE BC H 0 1 08:56:55.11 12.5821 00:09:39 Yes
26 Real Madrid Y Familia - FL 5247-AU23-HRPC BB H 0 2 08:56:55.12 12.5820 00:09:39 Yes
26 Lsu - LA 0019-AU23-LSU BB H 0 1 08:56:55.14 12.5820 00:09:39 Yes
28 Kairo Family Loft - MI 48984-AU23-ARPU VHAGAR GRIZ H 0 1 08:56:55.34 12.5815 00:09:39 Yes
29 Lsu - LA 0013-AU23-LSU BC C 0 2 08:56:55.45 12.5812 00:09:39 Yes
30 Ranchland Loft - FL 0033-AU23-RANC BB C 0 1 08:56:55.75 12.5805 00:09:40 Yes
30 Jax Zhao - FL 15311-AU23-AA BBWF H 0 1 08:56:55.76 12.5805 00:09:40 Yes
32 Yeroloft - FL 55109-AU23-ARPU BB C 0 1 08:56:55.87 12.5802 00:09:40 Yes
32 Fl Lin Loft - FL 48739-AU23-ARPU WITH H 0 1 08:56:55.88 12.5802 00:09:40 Yes
34 W T J Loft - TX 0447-AU23-WTJ 447-WTJ 💎💎 BB C 0 1 08:56:56.03 12.5798 00:09:40 Yes
35 Vita / Kendry / Jesus - FL 3473-AU23-THP SP H 0 1 08:56:56.40 12.5789 00:09:40 Yes
35 Denis Loft - FL 6010-AU23-AA BB H 0 1 08:56:56.41 12.5789 00:09:40 Yes
37 Mollinedo Rivera Loft - FL 0007-AU23-AEM Lucky Number BB C 0 2 08:56:56.50 12.5787 00:09:41 Yes
38 Dragon Loft - FL 36645-AU23-ARPU RED C 0 1 08:56:56.57 12.5785 00:09:41 Yes
39 Yadian Loft - FL 38386-AU23-ARPU SILV H 0 1 08:56:57.16 12.5771 00:09:41 Yes
39 Yandry El Tiburon & Pelly - FL 5812-AU23-HRPC BBSP H 0 1 08:56:57.18 12.5771 00:09:41 Yes
41 3men2 Loft - FL 1769-AU23-RLL BB C 0 1 08:56:57.28 12.5768 00:09:41 Yes
41 3 Fantasma - TX 30853-AU23-FOYS BC C 0 1 08:56:57.29 12.5768 00:09:41 Yes
41 Jimmyzhengloft - MS 0165-AU23-JIMM BBWF H 0 1 08:56:57.30 12.5768 00:09:41 Yes
44 Dac Family Loft - MI 0094-AU23-DAC RED C 0 1 08:56:57.53 12.5762 00:09:42 Yes
44 Dmv Loft - FL 0220-AU23-DMV MARTINEZ 220 BB H 0 1 08:56:57.54 12.5762 00:09:42 Yes
46 Aaron Loft - FL 2322-AU23-LIAN BBWF H 0 1 08:56:57.82 12.5755 00:09:42 Yes
46 Ron Talbot /Jimmy Fernandez - LA 0037-AU23-RON BB H 0 1 08:56:57.83 12.5755 00:09:42 Yes
48 78 W S Loft - PA 0154-IF23-MH 🖤🔱154卯 BB H 0 1 08:56:57.85 12.5754 00:09:42 Yes
49 Clewiston loft - FL 12510-AU23-ARPU Silva / Yender BB H 0 1 08:56:58.14 12.5747 00:09:42 Yes
49 Aguila - FL 23004-IF23-FCC BB H 0 1 08:56:58.16 12.5747 00:09:42 Yes
51 Lugo 55 & Alvarez Loft - KY 0273-AU23-AGRP Tamacun BB C 0 2 08:56:58.18 12.5746 00:09:42 Yes
52 EL ANIMAL - LA NEGRA - FL 12731-AU23-ARPU BC H 0 1 08:56:58.32 12.5743 00:09:42 Yes
52 Lachy Loft - FL 37435-AU23-JEDD GRIZ C 0 1 08:56:58.33 12.5743 00:09:42 Yes
52 Spring Hill - Miami-Syndicate - FL 0159-AU23-GALL BB C 0 2 08:56:58.34 12.5743 00:09:42 Yes
55 El Dopi Loft - FL 38006-AU23-ARPU BC H 0 1 08:56:58.35 12.5742 00:09:42 Yes
55 Dong Family Loft - NY 0022-AU23-DONG 🎉568x典杯777🎉 BC C 0 1 08:56:58.37 12.5742 00:09:42 Yes
57 Evolution Roly Loft - FL 0546-AU23-TCPC BC C 0 1 08:56:58.51 12.5739 00:09:43 Yes
58 Vita / Kendry / Jesus - FL 3331-AU23-THP BB C 0 2 08:56:58.54 12.5738 00:09:43 Yes
58 Cardenas Loft - FL 1337-AU23-CARD BB C 0 1 08:56:58.54 12.5738 00:09:43 Yes
58 A Tian loft - FL 36561-AU23-ARPU BBWF H 0 1 08:56:58.55 12.5738 00:09:43 Yes
61 Barbaro RG Loft - FL 14034-AU23-ARPU BC H 0 1 08:56:58.56 12.5737 00:09:43 Yes
62 C-4 Pelon Loft - MS 12204-AU23-JEDD CHAVELO BC C 0 1 08:56:59.15 12.5723 00:09:43 Yes
62 La Liga Loft - FL 11863-AU23-ARPU BB H 0 1 08:56:59.16 12.5723 00:09:43 Yes
64 Ivan El Terrible Loft - FL 6326-AU23-ARPU BB H 0 1 08:56:59.28 12.5720 00:09:43 Yes
65 Q-Ba Family Loft Bgr Olr - TX 23146-AU23-SAIN 🇨🇺Pair#15🇺🇸 BBWF C 0 1 08:56:59.30 12.5719 00:09:43 Yes
66 Alvaro Rey Loft - FL 0257-AU23-PRPC BB H 0 2 08:56:59.42 12.5717 00:09:43 Yes
67 Aaron Loft - FL 2305-AU23-LIAN BB H 0 2 08:56:59.43 12.5716 00:09:43 Yes
67 Yaquy Las 500 Loft 2 - FL 11901-AU23-ARPU BB C 0 1 08:56:59.45 12.5716 00:09:43 Yes
67 Glen Weaver Loft - OK 26614-AU23-ARPU BB C 0 1 08:56:59.46 12.5716 00:09:43 Yes
70 Aaron Loft - FL 59119-AU23-VLAD BB C 0 3 08:56:59.59 12.5713 00:09:44 Yes
71 Bmw Loft - FL 7155-AU23-AA BBWF H 0 1 08:56:59.61 12.5712 00:09:44 Yes
72 Juan Ganga - FL 1210-AU23-ALON BB C 0 1 08:57:00.06 12.5701 00:09:44 Yes
72 Ivan El Terrible Loft - FL 2909-AU23-AA BC C 0 2 08:57:00.07 12.5701 00:09:44 Yes
74 Yandry El Tiburon & Pelly - FL 5817-AU23-HRPC BB C 0 2 08:57:00.09 12.5700 00:09:44 Yes
75 La Liga Loft - FL 11861-AU23-ARPU BB C 0 2 08:57:00.27 12.5696 00:09:44 Yes
75 Daniel Martinez Loft 2 - FL 0004-AU23-DANI BC H 0 1 08:57:00.28 12.5696 00:09:44 Yes
77 Alvaro Rey Loft - FL 0282-AU23-PRPC BC H 0 3 08:57:00.61 12.5688 00:09:45 Yes
77 America Loft - IN 0496-AU23-AMER Chapo. 95/[1 BB C 0 1 08:57:00.62 12.5688 00:09:45 Yes
79 Caballero Loft - FL 0358-AU23-CABA BC H 0 1 08:57:00.64 12.5687 00:09:45 Yes
79 Lugo 55 & Alvarez Loft - KY 0255-AU23-AGRP El 4 tres veces BBWF C 0 3 08:57:00.65 12.5687 00:09:45 Yes
79 Comando Loft - FL 2121-AU23-THP BC C 0 1 08:57:00.66 12.5687 00:09:45 Yes
82 Kwan Loft - CA 2333-AU23-KWAN BBWF H 0 1 08:57:01.03 12.5678 00:09:45 Yes
83 Aaron Loft - FL 59111-AU23-VLAD BB H 0 4 08:57:01.19 12.5674 00:09:45 Yes
83 America Loft - IN 0416-AU23-AMER CJNG. 419 BB H 0 2 08:57:01.20 12.5674 00:09:45 Yes
85 Caco Family Loft Karel - FL 2294-AU23-CACO 1118-1403 CHOC H 0 1 08:57:01.22 12.5673 00:09:45 Yes
86 Caballero Loft - FL 0300-AU23-CABA BB H 0 2 08:57:01.52 12.5666 00:09:46 Yes
86 Denis Loft - FL 6014-AU23-AA BB C 0 2 08:57:01.53 12.5666 00:09:46 Yes
88 Kimberly Loft - FL 0702-AU23-RIVE BB H 0 1 08:57:01.55 12.5665 00:09:46 Yes
88 Spring Hill - Miami-Syndicate - FL 0071-AU23-GHC BB H 0 3 08:57:01.56 12.5665 00:09:46 Yes
90 Undoso Loft - FL 0232-AU23-UNDU BC C 0 1 08:57:01.69 12.5662 00:09:46 Yes
90 Bmw Loft - FL 7161-AU23-AA BB C 0 2 08:57:01.70 12.5662 00:09:46 Yes
92 JuliettaFamilyLoft - FL 0083-AU23-TUNA Trump BB H 0 2 08:57:01.71 12.5661 00:09:46 Yes
93 Jiang Tou Loft - TN 9950-AU23-TOU 🟥🟥🟥🟥🟥🟥 BB C 0 2 08:57:01.83 12.5659 00:09:46 Yes
94 GonzalezFamilyLoft - FL 0088-AU23-GONZ "Yuki" BB H 0 2 08:57:01.84 12.5658 00:09:46 Yes
94 La Quinta Loft - FL 13255-AU23-ARPU BB C 0 1 08:57:01.85 12.5658 00:09:46 Yes
96 Jax Zhao - FL 15314-AU23-AA BB H 0 2 08:57:02.03 12.5654 00:09:46 Yes
97 JAZZY LOFT - FL 0442-AU23-PRPC Kane BB C 0 1 08:57:02.51 12.5642 00:09:47 Yes
97 Real Madrid Y Familia - FL 5250-AU23-HRPC BB C 0 3 08:57:02.52 12.5642 00:09:47 Yes
97 Ace Imperial Loft - NY 4110-AU23-JEDD BBSP C 0 1 08:57:02.54 12.5642 00:09:47 Yes
100 Rgalvez Loft - FL 38145-AU23-ARPU BB H 0 1 08:57:02.68 12.5638 00:09:47 Yes

There are 1415 bird records

Note: These Race Results are unofficial and subject to change until verified by the Race Committee and declared final.

 


windy
Click for Forecast for 34769 from weatherUSA